sensor_id;sensor_type;location;lat;lon;timestamp;temperature;humidity
27004;DHT22;14546;47.590;19.022;2023-04-03T00:01:12;7.20;71.70
27004;DHT22;14546;47.590;19.022;2023-04-03T00:03:38;7.30;71.60
27004;DHT22;14546;47.590;19.022;2023-04-03T00:06:04;7.20;71.50
27004;DHT22;14546;47.590;19.022;2023-04-03T00:08:32;7.10;71.60
27004;DHT22;14546;47.590;19.022;2023-04-03T00:11:01;7.10;71.80
27004;DHT22;14546;47.590;19.022;2023-04-03T00:13:28;7.00;71.70
27004;DHT22;14546;47.590;19.022;2023-04-03T00:15:54;7.00;71.80
27004;DHT22;14546;47.590;19.022;2023-04-03T00:18:19;7.00;71.90
27004;DHT22;14546;47.590;19.022;2023-04-03T00:20:45;6.90;71.90
27004;DHT22;14546;47.590;19.022;2023-04-03T00:23:11;6.90;72.10
27004;DHT22;14546;47.590;19.022;2023-04-03T00:25:37;6.90;72.20
27004;DHT22;14546;47.590;19.022;2023-04-03T00:28:04;6.90;72.10
27004;DHT22;14546;47.590;19.022;2023-04-03T00:30:30;6.90;72.10
27004;DHT22;14546;47.590;19.022;2023-04-03T00:32:55;7.00;72.10
27004;DHT22;14546;47.590;19.022;2023-04-03T00:35:22;6.90;71.90
27004;DHT22;14546;47.590;19.022;2023-04-03T00:37:51;6.90;71.90
27004;DHT22;14546;47.590;19.022;2023-04-03T00:40:17;6.90;71.90
27004;DHT22;14546;47.590;19.022;2023-04-03T00:42:44;6.90;71.90
27004;DHT22;14546;47.590;19.022;2023-04-03T00:47:38;6.90;71.80
27004;DHT22;14546;47.590;19.022;2023-04-03T00:50:05;6.90;71.80
27004;DHT22;14546;47.590;19.022;2023-04-03T00:52:31;6.80;71.70
27004;DHT22;14546;47.590;19.022;2023-04-03T00:55:02;6.80;71.90
27004;DHT22;14546;47.590;19.022;2023-04-03T00:57:30;6.80;71.90
27004;DHT22;14546;47.590;19.022;2023-04-03T01:00:03;6.80;71.90
27004;DHT22;14546;47.590;19.022;2023-04-03T01:02:30;6.80;71.70
27004;DHT22;14546;47.590;19.022;2023-04-03T01:04:55;6.90;71.60
27004;DHT22;14546;47.590;19.022;2023-04-03T01:07:29;6.90;71.60
27004;DHT22;14546;47.590;19.022;2023-04-03T01:09:58;6.90;71.40
27004;DHT22;14546;47.590;19.022;2023-04-03T01:12:30;6.90;71.90
27004;DHT22;14546;47.590;19.022;2023-04-03T01:25:56;6.90;70.90
27004;DHT22;14546;47.590;19.022;2023-04-03T01:28:39;6.90;70.80
27004;DHT22;14546;47.590;19.022;2023-04-03T01:31:18;6.80;70.60
27004;DHT22;14546;47.590;19.022;2023-04-03T01:33:45;6.80;70.60
27004;DHT22;14546;47.590;19.022;2023-04-03T01:36:18;6.80;70.60
27004;DHT22;14546;47.590;19.022;2023-04-03T01:38:44;6.80;70.70
27004;DHT22;14546;47.590;19.022;2023-04-03T01:41:10;6.70;70.40
27004;DHT22;14546;47.590;19.022;2023-04-03T01:43:36;6.70;70.10
27004;DHT22;14546;47.590;19.022;2023-04-03T01:46:02;6.70;70.30
27004;DHT22;14546;47.590;19.022;2023-04-03T01:48:27;6.60;70.10
27004;DHT22;14546;47.590;19.022;2023-04-03T01:50:54;6.60;70.20
27004;DHT22;14546;47.590;19.022;2023-04-03T01:53:19;6.60;70.20
27004;DHT22;14546;47.590;19.022;2023-04-03T01:55:45;6.60;70.20
27004;DHT22;14546;47.590;19.022;2023-04-03T01:58:11;6.60;70.00
27004;DHT22;14546;47.590;19.022;2023-04-03T02:00:37;6.50;70.10
27004;DHT22;14546;47.590;19.022;2023-04-03T02:03:03;6.60;70.20
27004;DHT22;14546;47.590;19.022;2023-04-03T02:05:28;6.50;70.20
27004;DHT22;14546;47.590;19.022;2023-04-03T02:07:54;6.50;70.00
27004;DHT22;14546;47.590;19.022;2023-04-03T02:10:20;6.40;69.80
27004;DHT22;14546;47.590;19.022;2023-04-03T02:12:46;6.40;69.80
27004;DHT22;14546;47.590;19.022;2023-04-03T02:15:12;6.40;70.10
27004;DHT22;14546;47.590;19.022;2023-04-03T02:17:37;6.40;70.10
27004;DHT22;14546;47.590;19.022;2023-04-03T02:20:04;6.30;70.20
27004;DHT22;14546;47.590;19.022;2023-04-03T02:22:30;6.30;70.30
27004;DHT22;14546;47.590;19.022;2023-04-03T02:24:55;6.30;70.60
27004;DHT22;14546;47.590;19.022;2023-04-03T02:27:21;6.30;70.60
27004;DHT22;14546;47.590;19.022;2023-04-03T02:29:47;6.30;70.60
27004;DHT22;14546;47.590;19.022;2023-04-03T02:32:12;6.20;70.50
27004;DHT22;14546;47.590;19.022;2023-04-03T02:34:38;6.30;70.80
27004;DHT22;14546;47.590;19.022;2023-04-03T02:37:04;6.20;70.80
27004;DHT22;14546;47.590;19.022;2023-04-03T02:39:29;6.20;70.80
27004;DHT22;14546;47.590;19.022;2023-04-03T02:41:55;6.20;70.90
27004;DHT22;14546;47.590;19.022;2023-04-03T02:44:21;6.20;70.90
27004;DHT22;14546;47.590;19.022;2023-04-03T02:46:49;6.20;71.00
27004;DHT22;14546;47.590;19.022;2023-04-03T02:49:14;6.20;71.00
27004;DHT22;14546;47.590;19.022;2023-04-03T02:51:41;6.10;71.00
27004;DHT22;14546;47.590;19.022;2023-04-03T02:54:07;6.10;71.00
27004;DHT22;14546;47.590;19.022;2023-04-03T02:56:33;6.10;71.00
27004;DHT22;14546;47.590;19.022;2023-04-03T02:58:58;6.10;71.20
27004;DHT22;14546;47.590;19.022;2023-04-03T03:01:24;6.00;71.20
27004;DHT22;14546;47.590;19.022;2023-04-03T03:03:50;6.00;71.20
27004;DHT22;14546;47.590;19.022;2023-04-03T03:06:16;6.00;71.30
27004;DHT22;14546;47.590;19.022;2023-04-03T03:08:43;6.00;71.40
27004;DHT22;14546;47.590;19.022;2023-04-03T03:11:10;5.90;71.20
27004;DHT22;14546;47.590;19.022;2023-04-03T03:13:35;5.90;71.20
27004;DHT22;14546;47.590;19.022;2023-04-03T03:16:02;5.80;71.20
27004;DHT22;14546;47.590;19.022;2023-04-03T03:18:28;5.70;71.40
27004;DHT22;14546;47.590;19.022;2023-04-03T03:20:55;5.70;71.60
27004;DHT22;14546;47.590;19.022;2023-04-03T03:23:23;5.70;71.70
27004;DHT22;14546;47.590;19.022;2023-04-03T03:25:49;5.60;72.00
27004;DHT22;14546;47.590;19.022;2023-04-03T03:28:15;5.60;72.00
27004;DHT22;14546;47.590;19.022;2023-04-03T03:30:40;5.60;72.10
27004;DHT22;14546;47.590;19.022;2023-04-03T03:33:06;5.60;72.30
27004;DHT22;14546;47.590;19.022;2023-04-03T03:35:32;5.60;72.10
27004;DHT22;14546;47.590;19.022;2023-04-03T03:37:58;5.60;72.10
27004;DHT22;14546;47.590;19.022;2023-04-03T03:40:23;5.50;72.10
27004;DHT22;14546;47.590;19.022;2023-04-03T03:42:49;5.50;72.20
27004;DHT22;14546;47.590;19.022;2023-04-03T03:45:18;5.50;72.30
27004;DHT22;14546;47.590;19.022;2023-04-03T03:47:43;5.40;72.30
27004;DHT22;14546;47.590;19.022;2023-04-03T03:50:09;5.40;72.40
27004;DHT22;14546;47.590;19.022;2023-04-03T03:52:35;5.30;72.70
27004;DHT22;14546;47.590;19.022;2023-04-03T03:55:01;5.20;72.80
27004;DHT22;14546;47.590;19.022;2023-04-03T03:57:26;5.10;73.00
27004;DHT22;14546;47.590;19.022;2023-04-03T03:59:54;5.10;73.30
27004;DHT22;14546;47.590;19.022;2023-04-03T04:02:20;5.00;73.40
27004;DHT22;14546;47.590;19.022;2023-04-03T04:04:46;5.00;73.40
27004;DHT22;14546;47.590;19.022;2023-04-03T04:07:11;5.00;73.60
27004;DHT22;14546;47.590;19.022;2023-04-03T04:09:37;4.90;73.60
27004;DHT22;14546;47.590;19.022;2023-04-03T04:12:03;4.90;73.70
27004;DHT22;14546;47.590;19.022;2023-04-03T04:14:29;4.80;73.90
27004;DHT22;14546;47.590;19.022;2023-04-03T04:16:54;4.70;74.00
27004;DHT22;14546;47.590;19.022;2023-04-03T04:19:20;4.70;74.30
27004;DHT22;14546;47.590;19.022;2023-04-03T04:21:46;4.70;74.40
27004;DHT22;14546;47.590;19.022;2023-04-03T04:24:11;4.60;74.50
27004;DHT22;14546;47.590;19.022;2023-04-03T04:26:37;4.50;74.70
27004;DHT22;14546;47.590;19.022;2023-04-03T04:29:03;4.50;74.80
27004;DHT22;14546;47.590;19.022;2023-04-03T04:31:28;4.50;75.00
27004;DHT22;14546;47.590;19.022;2023-04-03T04:33:54;4.40;75.20
27004;DHT22;14546;47.590;19.022;2023-04-03T04:36:20;4.40;75.30
27004;DHT22;14546;47.590;19.022;2023-04-03T04:38:45;4.30;75.50
27004;DHT22;14546;47.590;19.022;2023-04-03T04:41:11;4.30;75.70
27004;DHT22;14546;47.590;19.022;2023-04-03T04:43:37;4.30;75.70
27004;DHT22;14546;47.590;19.022;2023-04-03T04:46:06;4.30;75.90
27004;DHT22;14546;47.590;19.022;2023-04-03T04:48:33;4.30;76.00
27004;DHT22;14546;47.590;19.022;2023-04-03T04:50:58;4.30;76.10
27004;DHT22;14546;47.590;19.022;2023-04-03T04:53:24;4.40;76.30
27004;DHT22;14546;47.590;19.022;2023-04-03T04:55:51;4.40;76.30
27004;DHT22;14546;47.590;19.022;2023-04-03T04:58:17;4.50;76.20
27004;DHT22;14546;47.590;19.022;2023-04-03T05:00:42;4.50;76.30
27004;DHT22;14546;47.590;19.022;2023-04-03T05:03:08;4.50;76.20
27004;DHT22;14546;47.590;19.022;2023-04-03T05:05:34;4.60;76.20
27004;DHT22;14546;47.590;19.022;2023-04-03T05:08:01;4.60;76.20
27004;DHT22;14546;47.590;19.022;2023-04-03T05:10:27;4.60;76.20
27004;DHT22;14546;47.590;19.022;2023-04-03T05:12:53;4.60;76.10
27004;DHT22;14546;47.590;19.022;2023-04-03T05:15:18;4.60;76.30
27004;DHT22;14546;47.590;19.022;2023-04-03T05:17:44;4.70;76.20
27004;DHT22;14546;47.590;19.022;2023-04-03T05:20:11;4.70;76.00
27004;DHT22;14546;47.590;19.022;2023-04-03T05:22:37;4.70;75.90
27004;DHT22;14546;47.590;19.022;2023-04-03T05:25:03;4.70;75.90
27004;DHT22;14546;47.590;19.022;2023-04-03T05:27:29;4.70;75.90
27004;DHT22;14546;47.590;19.022;2023-04-03T05:29:55;4.70;75.90
27004;DHT22;14546;47.590;19.022;2023-04-03T05:32:22;4.70;76.10
27004;DHT22;14546;47.590;19.022;2023-04-03T05:34:48;4.60;75.80
27004;DHT22;14546;47.590;19.022;2023-04-03T05:37:14;4.60;75.80
27004;DHT22;14546;47.590;19.022;2023-04-03T05:39:39;4.60;76.00
27004;DHT22;14546;47.590;19.022;2023-04-03T05:42:07;4.60;75.90
27004;DHT22;14546;47.590;19.022;2023-04-03T05:44:32;4.60;76.00
27004;DHT22;14546;47.590;19.022;2023-04-03T05:46:58;4.70;76.00
27004;DHT22;14546;47.590;19.022;2023-04-03T05:49:24;4.70;75.90
27004;DHT22;14546;47.590;19.022;2023-04-03T05:51:50;4.70;75.90
27004;DHT22;14546;47.590;19.022;2023-04-03T05:54:23;4.70;75.90
27004;DHT22;14546;47.590;19.022;2023-04-03T05:56:50;4.80;76.10
27004;DHT22;14546;47.590;19.022;2023-04-03T05:59:17;4.90;76.00
27004;DHT22;14546;47.590;19.022;2023-04-03T06:01:42;4.90;76.00
27004;DHT22;14546;47.590;19.022;2023-04-03T06:04:08;4.90;76.10
27004;DHT22;14546;47.590;19.022;2023-04-03T06:06:52;4.90;76.20
27004;DHT22;14546;47.590;19.022;2023-04-03T06:09:20;5.00;76.50
27004;DHT22;14546;47.590;19.022;2023-04-03T06:11:46;5.10;76.50
27004;DHT22;14546;47.590;19.022;2023-04-03T06:14:12;5.10;76.40
27004;DHT22;14546;47.590;19.022;2023-04-03T06:16:39;5.30;76.30
27004;DHT22;14546;47.590;19.022;2023-04-03T06:19:05;5.40;76.10
27004;DHT22;14546;47.590;19.022;2023-04-03T06:21:32;5.50;76.00
27004;DHT22;14546;47.590;19.022;2023-04-03T06:23:58;5.70;76.00
27004;DHT22;14546;47.590;19.022;2023-04-03T06:26:24;5.80;75.60
27004;DHT22;14546;47.590;19.022;2023-04-03T06:28:49;5.90;75.10
27004;DHT22;14546;47.590;19.022;2023-04-03T06:31:15;6.10;74.70
27004;DHT22;14546;47.590;19.022;2023-04-03T06:33:41;6.20;74.30
27004;DHT22;14546;47.590;19.022;2023-04-03T06:36:09;6.30;73.70
27004;DHT22;14546;47.590;19.022;2023-04-03T06:38:35;6.50;73.70
27004;DHT22;14546;47.590;19.022;2023-04-03T06:41:01;6.60;72.60
27004;DHT22;14546;47.590;19.022;2023-04-03T06:43:27;6.70;72.30
27004;DHT22;14546;47.590;19.022;2023-04-03T06:45:53;6.90;72.00
27004;DHT22;14546;47.590;19.022;2023-04-03T06:48:18;7.00;71.80
27004;DHT22;14546;47.590;19.022;2023-04-03T06:50:44;7.20;71.30
27004;DHT22;14546;47.590;19.022;2023-04-03T06:53:10;7.30;70.60
27004;DHT22;14546;47.590;19.022;2023-04-03T06:55:36;7.40;69.80
27004;DHT22;14546;47.590;19.022;2023-04-03T06:58:02;7.50;68.70
27004;DHT22;14546;47.590;19.022;2023-04-03T07:00:29;7.50;68.50
27004;DHT22;14546;47.590;19.022;2023-04-03T07:02:55;7.60;69.00
27004;DHT22;14546;47.590;19.022;2023-04-03T07:05:23;7.70;68.80
27004;DHT22;14546;47.590;19.022;2023-04-03T07:07:49;7.80;68.60
27004;DHT22;14546;47.590;19.022;2023-04-03T07:10:15;7.90;67.60
27004;DHT22;14546;47.590;19.022;2023-04-03T07:12:41;8.00;67.60
27004;DHT22;14546;47.590;19.022;2023-04-03T07:15:07;8.10;67.40
27004;DHT22;14546;47.590;19.022;2023-04-03T07:17:34;8.10;67.30
27004;DHT22;14546;47.590;19.022;2023-04-03T07:19:59;8.20;67.50
27004;DHT22;14546;47.590;19.022;2023-04-03T07:22:25;8.40;67.10
27004;DHT22;14546;47.590;19.022;2023-04-03T07:24:51;8.50;66.50
27004;DHT22;14546;47.590;19.022;2023-04-03T07:27:17;8.60;66.60
27004;DHT22;14546;47.590;19.022;2023-04-03T07:29:43;8.70;66.40
27004;DHT22;14546;47.590;19.022;2023-04-03T07:32:09;8.80;66.20
27004;DHT22;14546;47.590;19.022;2023-04-03T07:34:35;8.90;65.90
27004;DHT22;14546;47.590;19.022;2023-04-03T07:37:01;9.00;64.90
27004;DHT22;14546;47.590;19.022;2023-04-03T07:39:28;9.00;63.90
27004;DHT22;14546;47.590;19.022;2023-04-03T07:41:54;9.10;64.10
27004;DHT22;14546;47.590;19.022;2023-04-03T07:44:20;9.20;63.80
27004;DHT22;14546;47.590;19.022;2023-04-03T07:46:46;9.30;63.80
27004;DHT22;14546;47.590;19.022;2023-04-03T07:49:13;9.30;63.10
27004;DHT22;14546;47.590;19.022;2023-04-03T07:51:39;9.40;62.80
27004;DHT22;14546;47.590;19.022;2023-04-03T07:54:06;9.50;62.80
27004;DHT22;14546;47.590;19.022;2023-04-03T07:56:32;9.60;62.80
27004;DHT22;14546;47.590;19.022;2023-04-03T07:58:57;9.70;62.60
27004;DHT22;14546;47.590;19.022;2023-04-03T08:01:23;9.70;61.70
27004;DHT22;14546;47.590;19.022;2023-04-03T08:03:49;9.90;62.10
27004;DHT22;14546;47.590;19.022;2023-04-03T08:06:14;10.10;62.60
27004;DHT22;14546;47.590;19.022;2023-04-03T08:08:40;10.30;61.80
27004;DHT22;14546;47.590;19.022;2023-04-03T08:11:06;10.40;61.00
27004;DHT22;14546;47.590;19.022;2023-04-03T08:13:34;10.40;60.10
27004;DHT22;14546;47.590;19.022;2023-04-03T08:16:09;10.50;59.50
27004;DHT22;14546;47.590;19.022;2023-04-03T08:18:35;10.50;59.50
27004;DHT22;14546;47.590;19.022;2023-04-03T08:21:00;10.60;59.60
27004;DHT22;14546;47.590;19.022;2023-04-03T08:23:26;10.80;59.80
27004;DHT22;14546;47.590;19.022;2023-04-03T08:25:52;10.90;59.50
27004;DHT22;14546;47.590;19.022;2023-04-03T08:28:17;11.00;59.00
27004;DHT22;14546;47.590;19.022;2023-04-03T08:30:44;11.10;58.40
27004;DHT22;14546;47.590;19.022;2023-04-03T08:33:11;11.20;58.10
27004;DHT22;14546;47.590;19.022;2023-04-03T08:35:40;11.20;57.30
27004;DHT22;14546;47.590;19.022;2023-04-03T08:38:07;11.10;56.90
27004;DHT22;14546;47.590;19.022;2023-04-03T08:40:33;11.00;57.00
27004;DHT22;14546;47.590;19.022;2023-04-03T08:43:03;11.00;57.10
27004;DHT22;14546;47.590;19.022;2023-04-03T08:48:20;10.90;57.20
27004;DHT22;14546;47.590;19.022;2023-04-03T08:50:53;11.10;57.40
27004;DHT22;14546;47.590;19.022;2023-04-03T08:53:32;11.20;56.60
27004;DHT22;14546;47.590;19.022;2023-04-03T08:56:08;11.30;56.40
27004;DHT22;14546;47.590;19.022;2023-04-03T08:58:52;11.40;55.60
27004;DHT22;14546;47.590;19.022;2023-04-03T09:03:50;11.60;55.60
27004;DHT22;14546;47.590;19.022;2023-04-03T09:06:26;11.80;55.40
27004;DHT22;14546;47.590;19.022;2023-04-03T09:21:58;13.00;53.50
27004;DHT22;14546;47.590;19.022;2023-04-03T09:24:24;13.00;53.50
27004;DHT22;14546;47.590;19.022;2023-04-03T09:27:01;12.90;52.90
27004;DHT22;14546;47.590;19.022;2023-04-03T09:29:28;12.70;52.50
27004;DHT22;14546;47.590;19.022;2023-04-03T09:32:00;12.60;52.80
27004;DHT22;14546;47.590;19.022;2023-04-03T09:34:27;12.50;52.30
27004;DHT22;14546;47.590;19.022;2023-04-03T09:36:55;12.50;52.10
27004;DHT22;14546;47.590;19.022;2023-04-03T09:39:24;12.30;51.40
27004;DHT22;14546;47.590;19.022;2023-04-03T09:42:21;12.20;51.40
27004;DHT22;14546;47.590;19.022;2023-04-03T09:45:03;12.10;52.10
27004;DHT22;14546;47.590;19.022;2023-04-03T09:47:33;12.00;52.20
27004;DHT22;14546;47.590;19.022;2023-04-03T09:52:42;11.90;51.90
27004;DHT22;14546;47.590;19.022;2023-04-03T09:55:26;11.90;52.50
27004;DHT22;14546;47.590;19.022;2023-04-03T09:58:00;11.90;53.00
27004;DHT22;14546;47.590;19.022;2023-04-03T10:00:31;12.00;53.00
27004;DHT22;14546;47.590;19.022;2023-04-03T10:02:58;12.10;52.80
27004;DHT22;14546;47.590;19.022;2023-04-03T10:05:39;12.20;52.90
27004;DHT22;14546;47.590;19.022;2023-04-03T10:08:24;12.20;52.30
27004;DHT22;14546;47.590;19.022;2023-04-03T10:11:13;12.30;51.70
27004;DHT22;14546;47.590;19.022;2023-04-03T10:14:10;12.20;51.20
27004;DHT22;14546;47.590;19.022;2023-04-03T10:16:43;12.20;51.20
27004;DHT22;14546;47.590;19.022;2023-04-03T10:19:24;12.10;51.70
27004;DHT22;14546;47.590;19.022;2023-04-03T10:22:00;12.00;51.60
27004;DHT22;14546;47.590;19.022;2023-04-03T10:36:04;11.80;51.50
27004;DHT22;14546;47.590;19.022;2023-04-03T10:44:05;11.70;51.40
27004;DHT22;14546;47.590;19.022;2023-04-03T10:46:47;11.60;51.50
27004;DHT22;14546;47.590;19.022;2023-04-03T10:51:48;11.60;51.50
27004;DHT22;14546;47.590;19.022;2023-04-03T10:54:36;11.60;51.50
27004;DHT22;14546;47.590;19.022;2023-04-03T10:57:10;11.60;51.20
27004;DHT22;14546;47.590;19.022;2023-04-03T10:59:43;11.60;51.40
27004;DHT22;14546;47.590;19.022;2023-04-03T11:04:44;11.50;51.50
27004;DHT22;14546;47.590;19.022;2023-04-03T11:07:17;11.40;51.40
27004;DHT22;14546;47.590;19.022;2023-04-03T11:09:49;11.40;51.50
27004;DHT22;14546;47.590;19.022;2023-04-03T11:12:42;11.40;51.50
27004;DHT22;14546;47.590;19.022;2023-04-03T11:15:15;11.50;51.70
27004;DHT22;14546;47.590;19.022;2023-04-03T11:17:48;11.50;52.00
27004;DHT22;14546;47.590;19.022;2023-04-03T11:22:48;11.60;52.00
27004;DHT22;14546;47.590;19.022;2023-04-03T11:25:23;11.60;52.20
27004;DHT22;14546;47.590;19.022;2023-04-03T11:28:03;11.60;51.40
27004;DHT22;14546;47.590;19.022;2023-04-03T11:36:09;11.50;51.70
27004;DHT22;14546;47.590;19.022;2023-04-03T11:38:40;11.50;51.60
27004;DHT22;14546;47.590;19.022;2023-04-03T11:41:08;11.60;51.50
27004;DHT22;14546;47.590;19.022;2023-04-03T11:43:41;11.50;51.30
27004;DHT22;14546;47.590;19.022;2023-04-03T11:46:08;11.50;51.30
27004;DHT22;14546;47.590;19.022;2023-04-03T11:53:40;11.60;51.50
27004;DHT22;14546;47.590;19.022;2023-04-03T12:04:17;11.60;51.60
27004;DHT22;14546;47.590;19.022;2023-04-03T12:11:50;11.60;51.60
27004;DHT22;14546;47.590;19.022;2023-04-03T12:14:16;11.60;51.20
27004;DHT22;14546;47.590;19.022;2023-04-03T12:16:43;11.50;51.00
27004;DHT22;14546;47.590;19.022;2023-04-03T12:19:36;11.50;51.10
27004;DHT22;14546;47.590;19.022;2023-04-03T12:24:37;11.50;51.10
27004;DHT22;14546;47.590;19.022;2023-04-03T12:27:33;11.50;51.00
27004;DHT22;14546;47.590;19.022;2023-04-03T12:30:23;11.50;50.90
27004;DHT22;14546;47.590;19.022;2023-04-03T12:35:39;11.60;51.20
27004;DHT22;14546;47.590;19.022;2023-04-03T12:41:45;11.80;51.30
27004;DHT22;14546;47.590;19.022;2023-04-03T12:44:54;11.90;51.00
27004;DHT22;14546;47.590;19.022;2023-04-03T12:47:25;12.00;51.00
27004;DHT22;14546;47.590;19.022;2023-04-03T12:49:53;12.00;51.10
27004;DHT22;14546;47.590;19.022;2023-04-03T12:55:00;12.00;50.50
27004;DHT22;14546;47.590;19.022;2023-04-03T12:57:30;11.90;50.40
27004;DHT22;14546;47.590;19.022;2023-04-03T12:59:56;11.80;50.20
27004;DHT22;14546;47.590;19.022;2023-04-03T13:02:29;11.70;50.20
27004;DHT22;14546;47.590;19.022;2023-04-03T13:04:57;11.70;50.20
27004;DHT22;14546;47.590;19.022;2023-04-03T13:07:35;11.70;50.20
27004;DHT22;14546;47.590;19.022;2023-04-03T13:12:45;11.60;50.00
27004;DHT22;14546;47.590;19.022;2023-04-03T13:15:21;11.60;50.20
27004;DHT22;14546;47.590;19.022;2023-04-03T13:17:48;11.60;50.60
27004;DHT22;14546;47.590;19.022;2023-04-03T13:20:28;11.70;50.80
27004;DHT22;14546;47.590;19.022;2023-04-03T13:25:30;11.90;50.70
27004;DHT22;14546;47.590;19.022;2023-04-03T13:27:58;11.90;51.30
27004;DHT22;14546;47.590;19.022;2023-04-03T13:30:36;11.90;50.80
27004;DHT22;14546;47.590;19.022;2023-04-03T13:33:05;12.00;50.70
27004;DHT22;14546;47.590;19.022;2023-04-03T13:38:20;12.10;50.50
27004;DHT22;14546;47.590;19.022;2023-04-03T13:40:50;12.20;50.50
27004;DHT22;14546;47.590;19.022;2023-04-03T13:43:22;12.30;50.40
27004;DHT22;14546;47.590;19.022;2023-04-03T13:46:05;12.30;49.90
27004;DHT22;14546;47.590;19.022;2023-04-03T13:48:37;12.30;49.40
27004;DHT22;14546;47.590;19.022;2023-04-03T13:53:46;12.30;49.50
27004;DHT22;14546;47.590;19.022;2023-04-03T14:01:23;12.40;49.40
27004;DHT22;14546;47.590;19.022;2023-04-03T14:03:56;12.30;49.50
27004;DHT22;14546;47.590;19.022;2023-04-03T14:06:22;12.30;49.30
27004;DHT22;14546;47.590;19.022;2023-04-03T14:08:49;12.20;49.40
27004;DHT22;14546;47.590;19.022;2023-04-03T14:11:26;12.10;49.30
27004;DHT22;14546;47.590;19.022;2023-04-03T14:14:02;12.10;49.30
27004;DHT22;14546;47.590;19.022;2023-04-03T14:16:33;12.00;49.00
27004;DHT22;14546;47.590;19.022;2023-04-03T14:19:02;12.00;49.10
27004;DHT22;14546;47.590;19.022;2023-04-03T14:21:28;12.00;49.10
27004;DHT22;14546;47.590;19.022;2023-04-03T14:23:54;11.90;49.00
27004;DHT22;14546;47.590;19.022;2023-04-03T14:26:23;11.80;48.90
27004;DHT22;14546;47.590;19.022;2023-04-03T14:28:53;11.70;48.50
27004;DHT22;14546;47.590;19.022;2023-04-03T14:31:20;11.70;49.00
27004;DHT22;14546;47.590;19.022;2023-04-03T14:33:46;11.60;49.30
27004;DHT22;14546;47.590;19.022;2023-04-03T14:36:22;11.60;49.50
27004;DHT22;14546;47.590;19.022;2023-04-03T14:38:50;11.70;49.70
27004;DHT22;14546;47.590;19.022;2023-04-03T14:41:18;11.70;49.60
27004;DHT22;14546;47.590;19.022;2023-04-03T14:43:45;11.70;49.50
27004;DHT22;14546;47.590;19.022;2023-04-03T14:46:22;11.80;49.30
27004;DHT22;14546;47.590;19.022;2023-04-03T14:48:49;11.80;49.40
27004;DHT22;14546;47.590;19.022;2023-04-03T14:51:15;11.80;49.50
27004;DHT22;14546;47.590;19.022;2023-04-03T14:53:42;11.70;49.50
27004;DHT22;14546;47.590;19.022;2023-04-03T14:56:28;11.70;49.50
27004;DHT22;14546;47.590;19.022;2023-04-03T14:58:59;11.70;49.20
27004;DHT22;14546;47.590;19.022;2023-04-03T15:01:27;11.60;49.20
27004;DHT22;14546;47.590;19.022;2023-04-03T15:03:54;11.60;49.10
27004;DHT22;14546;47.590;19.022;2023-04-03T15:06:20;11.60;48.60
27004;DHT22;14546;47.590;19.022;2023-04-03T15:08:47;11.50;48.30
27004;DHT22;14546;47.590;19.022;2023-04-03T15:11:13;11.50;48.10
27004;DHT22;14546;47.590;19.022;2023-04-03T15:13:39;11.40;47.90
27004;DHT22;14546;47.590;19.022;2023-04-03T15:16:15;11.30;47.90
27004;DHT22;14546;47.590;19.022;2023-04-03T15:18:42;11.10;47.50
27004;DHT22;14546;47.590;19.022;2023-04-03T15:21:07;11.00;47.80
27004;DHT22;14546;47.590;19.022;2023-04-03T15:23:33;11.00;48.30
27004;DHT22;14546;47.590;19.022;2023-04-03T15:25:59;10.90;48.20
27004;DHT22;14546;47.590;19.022;2023-04-03T15:28:27;10.80;48.40
27004;DHT22;14546;47.590;19.022;2023-04-03T15:30:54;10.70;48.70
27004;DHT22;14546;47.590;19.022;2023-04-03T15:33:20;10.70;48.70
27004;DHT22;14546;47.590;19.022;2023-04-03T15:35:46;10.60;48.80
27004;DHT22;14546;47.590;19.022;2023-04-03T15:38:12;10.60;48.90
27004;DHT22;14546;47.590;19.022;2023-04-03T15:40:38;10.50;48.90
27004;DHT22;14546;47.590;19.022;2023-04-03T15:43:05;10.40;49.00
27004;DHT22;14546;47.590;19.022;2023-04-03T15:45:32;10.40;49.10
27004;DHT22;14546;47.590;19.022;2023-04-03T15:47:59;10.20;48.90
27004;DHT22;14546;47.590;19.022;2023-04-03T15:50:25;10.20;49.10
27004;DHT22;14546;47.590;19.022;2023-04-03T15:52:52;10.10;49.30
27004;DHT22;14546;47.590;19.022;2023-04-03T15:55:24;10.10;49.40
27004;DHT22;14546;47.590;19.022;2023-04-03T15:57:51;10.00;49.70
27004;DHT22;14546;47.590;19.022;2023-04-03T16:00:17;10.00;50.00
27004;DHT22;14546;47.590;19.022;2023-04-03T16:02:45;10.00;50.30
27004;DHT22;14546;47.590;19.022;2023-04-03T16:05:12;10.00;50.50
27004;DHT22;14546;47.590;19.022;2023-04-03T16:07:39;9.90;50.50
27004;DHT22;14546;47.590;19.022;2023-04-03T16:10:06;9.80;50.40
27004;DHT22;14546;47.590;19.022;2023-04-03T16:12:33;9.80;50.50
27004;DHT22;14546;47.590;19.022;2023-04-03T16:14:59;9.80;50.50
27004;DHT22;14546;47.590;19.022;2023-04-03T16:17:26;9.80;50.30
27004;DHT22;14546;47.590;19.022;2023-04-03T16:19:53;9.70;50.30
27004;DHT22;14546;47.590;19.022;2023-04-03T16:22:20;9.70;50.20
27004;DHT22;14546;47.590;19.022;2023-04-03T16:24:49;9.60;50.00
27004;DHT22;14546;47.590;19.022;2023-04-03T16:27:15;9.60;50.10
27004;DHT22;14546;47.590;19.022;2023-04-03T16:29:41;9.60;50.70
27004;DHT22;14546;47.590;19.022;2023-04-03T16:32:06;9.70;50.90
27004;DHT22;14546;47.590;19.022;2023-04-03T16:34:32;9.70;51.00
27004;DHT22;14546;47.590;19.022;2023-04-03T16:36:59;9.60;50.50
27004;DHT22;14546;47.590;19.022;2023-04-03T16:39:25;9.50;50.20
27004;DHT22;14546;47.590;19.022;2023-04-03T16:41:51;9.30;50.20
27004;DHT22;14546;47.590;19.022;2023-04-03T16:44:17;9.30;50.20
27004;DHT22;14546;47.590;19.022;2023-04-03T16:46:43;9.20;50.30
27004;DHT22;14546;47.590;19.022;2023-04-03T16:49:09;9.20;50.50
27004;DHT22;14546;47.590;19.022;2023-04-03T16:51:35;9.10;50.40
27004;DHT22;14546;47.590;19.022;2023-04-03T16:54:01;9.10;50.50
27004;DHT22;14546;47.590;19.022;2023-04-03T16:56:27;9.00;50.30
27004;DHT22;14546;47.590;19.022;2023-04-03T16:58:53;8.90;50.20
27004;DHT22;14546;47.590;19.022;2023-04-03T17:01:23;8.90;50.30
27004;DHT22;14546;47.590;19.022;2023-04-03T17:03:49;8.80;50.00
27004;DHT22;14546;47.590;19.022;2023-04-03T17:06:20;8.80;49.80
27004;DHT22;14546;47.590;19.022;2023-04-03T17:08:47;8.60;49.70
27004;DHT22;14546;47.590;19.022;2023-04-03T17:11:14;8.60;50.00
27004;DHT22;14546;47.590;19.022;2023-04-03T17:13:40;8.60;50.00
27004;DHT22;14546;47.590;19.022;2023-04-03T17:16:10;8.60;50.10
27004;DHT22;14546;47.590;19.022;2023-04-03T17:18:37;8.50;50.10
27004;DHT22;14546;47.590;19.022;2023-04-03T17:21:03;8.50;50.20
27004;DHT22;14546;47.590;19.022;2023-04-03T17:23:30;8.50;50.40